sensor_id;sensor_type;location;lat;lon;timestamp;temperature;humidity
82243;DHT22;71844;51.528;4.442;2023-08-21T00:02:06;22.80;58.30
82243;DHT22;71844;51.528;4.442;2023-08-21T00:04:33;22.80;58.50
82243;DHT22;71844;51.528;4.442;2023-08-21T00:07:00;22.80;58.60
82243;DHT22;71844;51.528;4.442;2023-08-21T00:09:27;22.80;58.80
82243;DHT22;71844;51.528;4.442;2023-08-21T00:11:54;22.70;59.00
82243;DHT22;71844;51.528;4.442;2023-08-21T00:14:21;22.70;59.20
82243;DHT22;71844;51.528;4.442;2023-08-21T00:16:48;22.60;59.60
82243;DHT22;71844;51.528;4.442;2023-08-21T00:19:15;22.60;59.70
82243;DHT22;71844;51.528;4.442;2023-08-21T00:21:42;22.50;59.90
82243;DHT22;71844;51.528;4.442;2023-08-21T00:24:09;22.40;60.20
82243;DHT22;71844;51.528;4.442;2023-08-21T00:26:36;22.40;60.40
82243;DHT22;71844;51.528;4.442;2023-08-21T00:29:03;22.30;60.60
82243;DHT22;71844;51.528;4.442;2023-08-21T00:31:30;22.30;60.90
82243;DHT22;71844;51.528;4.442;2023-08-21T00:33:57;22.30;61.00
82243;DHT22;71844;51.528;4.442;2023-08-21T00:36:24;22.20;61.00
82243;DHT22;71844;51.528;4.442;2023-08-21T00:38:51;22.20;61.10
82243;DHT22;71844;51.528;4.442;2023-08-21T00:41:18;22.10;61.40
82243;DHT22;71844;51.528;4.442;2023-08-21T00:43:45;22.10;61.60
82243;DHT22;71844;51.528;4.442;2023-08-21T00:46:12;22.10;61.60
82243;DHT22;71844;51.528;4.442;2023-08-21T00:48:39;22.10;61.60
82243;DHT22;71844;51.528;4.442;2023-08-21T00:51:06;22.00;61.60
82243;DHT22;71844;51.528;4.442;2023-08-21T00:53:34;22.00;61.90
82243;DHT22;71844;51.528;4.442;2023-08-21T00:56:01;22.00;62.00
82243;DHT22;71844;51.528;4.442;2023-08-21T00:58:29;22.00;62.10
82243;DHT22;71844;51.528;4.442;2023-08-21T01:00:56;21.90;62.10
82243;DHT22;71844;51.528;4.442;2023-08-21T01:03:24;21.90;62.00
82243;DHT22;71844;51.528;4.442;2023-08-21T01:05:52;21.90;62.10
82243;DHT22;71844;51.528;4.442;2023-08-21T01:08:42;21.90;62.10
82243;DHT22;71844;51.528;4.442;2023-08-21T01:11:21;21.90;62.20
82243;DHT22;71844;51.528;4.442;2023-08-21T01:14:43;21.90;62.30
82243;DHT22;71844;51.528;4.442;2023-08-21T01:16:46;21.90;62.40
82243;DHT22;71844;51.528;4.442;2023-08-21T01:19:38;21.90;62.50
82243;DHT22;71844;51.528;4.442;2023-08-21T01:22:07;21.90;62.70
82243;DHT22;71844;51.528;4.442;2023-08-21T01:24:34;21.90;62.50
82243;DHT22;71844;51.528;4.442;2023-08-21T01:27:01;21.90;62.40
82243;DHT22;71844;51.528;4.442;2023-08-21T01:29:29;21.90;62.60
82243;DHT22;71844;51.528;4.442;2023-08-21T01:32:10;21.90;62.70
82243;DHT22;71844;51.528;4.442;2023-08-21T01:34:40;21.90;62.90
82243;DHT22;71844;51.528;4.442;2023-08-21T01:37:08;21.80;62.60
82243;DHT22;71844;51.528;4.442;2023-08-21T01:39:35;21.80;62.60
82243;DHT22;71844;51.528;4.442;2023-08-21T01:42:02;21.80;62.50
82243;DHT22;71844;51.528;4.442;2023-08-21T01:44:31;21.70;62.70
82243;DHT22;71844;51.528;4.442;2023-08-21T01:46:58;21.60;62.80
82243;DHT22;71844;51.528;4.442;2023-08-21T01:49:25;21.50;62.90
82243;DHT22;71844;51.528;4.442;2023-08-21T01:51:52;21.50;63.20
82243;DHT22;71844;51.528;4.442;2023-08-21T01:54:19;21.40;63.30
82243;DHT22;71844;51.528;4.442;2023-08-21T01:56:46;21.40;63.50
82243;DHT22;71844;51.528;4.442;2023-08-21T01:59:13;21.40;63.60
82243;DHT22;71844;51.528;4.442;2023-08-21T02:01:40;21.30;63.70
82243;DHT22;71844;51.528;4.442;2023-08-21T02:04:07;21.30;63.70
82243;DHT22;71844;51.528;4.442;2023-08-21T02:06:34;21.30;63.80
82243;DHT22;71844;51.528;4.442;2023-08-21T02:09:00;21.30;63.90
82243;DHT22;71844;51.528;4.442;2023-08-21T02:11:27;21.30;64.00
82243;DHT22;71844;51.528;4.442;2023-08-21T02:13:54;21.30;63.90
82243;DHT22;71844;51.528;4.442;2023-08-21T02:16:21;21.30;64.00
82243;DHT22;71844;51.528;4.442;2023-08-21T02:18:48;21.30;64.00
82243;DHT22;71844;51.528;4.442;2023-08-21T02:21:15;21.20;64.00
82243;DHT22;71844;51.528;4.442;2023-08-21T02:23:42;21.20;64.00
82243;DHT22;71844;51.528;4.442;2023-08-21T02:26:09;21.20;64.10
82243;DHT22;71844;51.528;4.442;2023-08-21T02:28:36;21.20;64.00
82243;DHT22;71844;51.528;4.442;2023-08-21T02:31:03;21.10;64.00
82243;DHT22;71844;51.528;4.442;2023-08-21T02:33:31;21.10;64.10
82243;DHT22;71844;51.528;4.442;2023-08-21T02:35:58;21.00;64.30
82243;DHT22;71844;51.528;4.442;2023-08-21T02:38:25;21.00;64.30
82243;DHT22;71844;51.528;4.442;2023-08-21T02:40:52;21.00;64.40
82243;DHT22;71844;51.528;4.442;2023-08-21T02:43:19;21.00;64.50
82243;DHT22;71844;51.528;4.442;2023-08-21T02:45:46;21.00;64.50
82243;DHT22;71844;51.528;4.442;2023-08-21T02:48:13;21.00;64.50
82243;DHT22;71844;51.528;4.442;2023-08-21T02:50:40;21.00;64.50
82243;DHT22;71844;51.528;4.442;2023-08-21T02:53:08;21.00;64.50
82243;DHT22;71844;51.528;4.442;2023-08-21T02:55:35;21.00;64.50
82243;DHT22;71844;51.528;4.442;2023-08-21T02:58:02;20.90;64.50
82243;DHT22;71844;51.528;4.442;2023-08-21T03:00:29;20.90;64.60
82243;DHT22;71844;51.528;4.442;2023-08-21T03:02:56;20.90;64.70
82243;DHT22;71844;51.528;4.442;2023-08-21T03:05:23;20.90;64.80
82243;DHT22;71844;51.528;4.442;2023-08-21T03:07:50;20.90;64.90
82243;DHT22;71844;51.528;4.442;2023-08-21T03:10:18;20.80;64.80
82243;DHT22;71844;51.528;4.442;2023-08-21T03:12:45;20.80;64.90
82243;DHT22;71844;51.528;4.442;2023-08-21T03:15:11;20.80;64.90
82243;DHT22;71844;51.528;4.442;2023-08-21T03:17:38;20.80;64.90
82243;DHT22;71844;51.528;4.442;2023-08-21T03:20:05;20.70;65.00
82243;DHT22;71844;51.528;4.442;2023-08-21T03:22:33;20.60;65.40
82243;DHT22;71844;51.528;4.442;2023-08-21T03:24:59;20.60;65.50
82243;DHT22;71844;51.528;4.442;2023-08-21T03:27:26;20.60;65.50
82243;DHT22;71844;51.528;4.442;2023-08-21T03:29:53;20.50;65.60
82243;DHT22;71844;51.528;4.442;2023-08-21T03:32:20;20.50;65.80
82243;DHT22;71844;51.528;4.442;2023-08-21T03:34:47;20.50;65.80
82243;DHT22;71844;51.528;4.442;2023-08-21T03:37:14;20.40;65.90
82243;DHT22;71844;51.528;4.442;2023-08-21T03:39:41;20.40;66.10
82243;DHT22;71844;51.528;4.442;2023-08-21T03:42:08;20.30;66.20
82243;DHT22;71844;51.528;4.442;2023-08-21T03:44:38;20.30;66.40
82243;DHT22;71844;51.528;4.442;2023-08-21T03:47:05;20.30;66.50
82243;DHT22;71844;51.528;4.442;2023-08-21T03:49:32;20.30;66.70
82243;DHT22;71844;51.528;4.442;2023-08-21T03:51:58;20.20;66.80
82243;DHT22;71844;51.528;4.442;2023-08-21T03:54:25;20.20;66.70
82243;DHT22;71844;51.528;4.442;2023-08-21T03:56:52;20.20;66.70
82243;DHT22;71844;51.528;4.442;2023-08-21T03:59:19;20.20;66.70
82243;DHT22;71844;51.528;4.442;2023-08-21T04:01:49;20.20;67.00
82243;DHT22;71844;51.528;4.442;2023-08-21T04:04:16;20.20;67.00
82243;DHT22;71844;51.528;4.442;2023-08-21T04:06:42;20.20;67.10
82243;DHT22;71844;51.528;4.442;2023-08-21T04:09:09;20.10;67.20
82243;DHT22;71844;51.528;4.442;2023-08-21T04:11:37;20.10;67.40
82243;DHT22;71844;51.528;4.442;2023-08-21T04:14:05;20.00;67.40
82243;DHT22;71844;51.528;4.442;2023-08-21T04:16:32;20.00;67.60
82243;DHT22;71844;51.528;4.442;2023-08-21T04:18:58;20.00;67.60
82243;DHT22;71844;51.528;4.442;2023-08-21T04:21:25;20.00;67.70
82243;DHT22;71844;51.528;4.442;2023-08-21T04:23:52;20.00;67.60
82243;DHT22;71844;51.528;4.442;2023-08-21T04:26:20;19.90;67.70
82243;DHT22;71844;51.528;4.442;2023-08-21T04:28:47;19.90;67.60
82243;DHT22;71844;51.528;4.442;2023-08-21T04:31:14;19.90;67.70
82243;DHT22;71844;51.528;4.442;2023-08-21T04:33:41;19.90;67.80
82243;DHT22;71844;51.528;4.442;2023-08-21T04:36:13;19.90;68.00
82243;DHT22;71844;51.528;4.442;2023-08-21T04:38:41;19.90;68.00
82243;DHT22;71844;51.528;4.442;2023-08-21T04:41:09;19.90;68.00
82243;DHT22;71844;51.528;4.442;2023-08-21T04:43:36;19.90;68.10
82243;DHT22;71844;51.528;4.442;2023-08-21T04:46:04;19.90;68.20
82243;DHT22;71844;51.528;4.442;2023-08-21T04:48:32;19.90;68.30
82243;DHT22;71844;51.528;4.442;2023-08-21T04:50:59;19.90;68.20
82243;DHT22;71844;51.528;4.442;2023-08-21T04:53:25;19.90;68.20
82243;DHT22;71844;51.528;4.442;2023-08-21T04:55:52;19.90;68.20
82243;DHT22;71844;51.528;4.442;2023-08-21T04:58:19;19.90;68.20
82243;DHT22;71844;51.528;4.442;2023-08-21T05:00:46;19.90;68.40
82243;DHT22;71844;51.528;4.442;2023-08-21T05:03:13;19.90;68.60
82243;DHT22;71844;51.528;4.442;2023-08-21T05:05:40;19.90;68.60
82243;DHT22;71844;51.528;4.442;2023-08-21T05:08:07;19.90;68.80
82243;DHT22;71844;51.528;4.442;2023-08-21T05:10:34;19.90;68.70
82243;DHT22;71844;51.528;4.442;2023-08-21T05:13:01;20.00;68.70
82243;DHT22;71844;51.528;4.442;2023-08-21T05:15:28;20.00;68.60
82243;DHT22;71844;51.528;4.442;2023-08-21T05:17:55;20.00;68.60
82243;DHT22;71844;51.528;4.442;2023-08-21T05:20:21;20.00;68.80
82243;DHT22;71844;51.528;4.442;2023-08-21T05:22:48;20.00;68.70
82243;DHT22;71844;51.528;4.442;2023-08-21T05:25:15;20.10;68.80
82243;DHT22;71844;51.528;4.442;2023-08-21T05:27:42;20.10;68.70
82243;DHT22;71844;51.528;4.442;2023-08-21T05:30:10;20.00;68.70
82243;DHT22;71844;51.528;4.442;2023-08-21T05:32:39;20.00;68.60
82243;DHT22;71844;51.528;4.442;2023-08-21T05:35:07;20.00;68.70
82243;DHT22;71844;51.528;4.442;2023-08-21T05:37:35;20.00;68.70
82243;DHT22;71844;51.528;4.442;2023-08-21T05:40:03;20.00;68.80
82243;DHT22;71844;51.528;4.442;2023-08-21T05:42:30;19.90;68.90
82243;DHT22;71844;51.528;4.442;2023-08-21T05:44:57;19.90;68.80
82243;DHT22;71844;51.528;4.442;2023-08-21T05:47:24;19.80;69.10
82243;DHT22;71844;51.528;4.442;2023-08-21T05:49:51;19.80;69.20
82243;DHT22;71844;51.528;4.442;2023-08-21T05:52:20;19.80;69.30
82243;DHT22;71844;51.528;4.442;2023-08-21T05:54:48;19.80;69.30
82243;DHT22;71844;51.528;4.442;2023-08-21T05:57:15;19.80;69.40
82243;DHT22;71844;51.528;4.442;2023-08-21T05:59:46;19.80;69.40
82243;DHT22;71844;51.528;4.442;2023-08-21T06:02:13;19.90;69.40
82243;DHT22;71844;51.528;4.442;2023-08-21T06:04:42;19.90;69.50
82243;DHT22;71844;51.528;4.442;2023-08-21T06:07:09;19.90;69.50
82243;DHT22;71844;51.528;4.442;2023-08-21T06:09:36;20.00;69.50
82243;DHT22;71844;51.528;4.442;2023-08-21T06:12:07;20.00;69.60
82243;DHT22;71844;51.528;4.442;2023-08-21T06:14:35;20.10;69.60
82243;DHT22;71844;51.528;4.442;2023-08-21T06:17:03;20.10;69.50
82243;DHT22;71844;51.528;4.442;2023-08-21T06:19:30;20.20;69.50
82243;DHT22;71844;51.528;4.442;2023-08-21T06:21:58;20.30;69.40
82243;DHT22;71844;51.528;4.442;2023-08-21T06:24:24;20.30;69.30
82243;DHT22;71844;51.528;4.442;2023-08-21T06:26:52;20.40;69.30
82243;DHT22;71844;51.528;4.442;2023-08-21T06:29:20;20.40;69.30
82243;DHT22;71844;51.528;4.442;2023-08-21T06:31:47;20.40;69.30
82243;DHT22;71844;51.528;4.442;2023-08-21T06:34:14;20.40;69.30
82243;DHT22;71844;51.528;4.442;2023-08-21T06:36:41;20.40;69.40
82243;DHT22;71844;51.528;4.442;2023-08-21T06:39:08;20.50;69.30
82243;DHT22;71844;51.528;4.442;2023-08-21T06:41:35;20.60;69.40
82243;DHT22;71844;51.528;4.442;2023-08-21T06:44:02;20.60;69.50
82243;DHT22;71844;51.528;4.442;2023-08-21T06:46:29;20.70;69.70
82243;DHT22;71844;51.528;4.442;2023-08-21T06:48:57;20.70;69.70
82243;DHT22;71844;51.528;4.442;2023-08-21T06:51:24;20.80;69.80
82243;DHT22;71844;51.528;4.442;2023-08-21T06:53:51;20.80;69.90
82243;DHT22;71844;51.528;4.442;2023-08-21T06:56:18;20.90;69.90
82243;DHT22;71844;51.528;4.442;2023-08-21T06:58:45;21.00;70.00
82243;DHT22;71844;51.528;4.442;2023-08-21T07:01:12;21.10;70.00
82243;DHT22;71844;51.528;4.442;2023-08-21T07:03:39;21.10;70.10
82243;DHT22;71844;51.528;4.442;2023-08-21T07:06:06;21.20;70.00
82243;DHT22;71844;51.528;4.442;2023-08-21T07:08:33;21.30;70.00
82243;DHT22;71844;51.528;4.442;2023-08-21T07:11:03;21.30;69.90
82243;DHT22;71844;51.528;4.442;2023-08-21T07:13:34;21.30;69.90
82243;DHT22;71844;51.528;4.442;2023-08-21T07:16:01;21.30;69.90
82243;DHT22;71844;51.528;4.442;2023-08-21T07:18:33;21.40;70.00
82243;DHT22;71844;51.528;4.442;2023-08-21T07:21:01;21.40;70.00
82243;DHT22;71844;51.528;4.442;2023-08-21T07:23:28;21.40;70.00
82243;DHT22;71844;51.528;4.442;2023-08-21T07:25:55;21.40;70.20
82243;DHT22;71844;51.528;4.442;2023-08-21T07:28:22;21.40;70.40
82243;DHT22;71844;51.528;4.442;2023-08-21T07:30:55;21.50;70.20
82243;DHT22;71844;51.528;4.442;2023-08-21T07:33:24;21.60;70.30
82243;DHT22;71844;51.528;4.442;2023-08-21T07:36:17;21.60;70.20
82243;DHT22;71844;51.528;4.442;2023-08-21T07:38:44;21.70;70.30
82243;DHT22;71844;51.528;4.442;2023-08-21T07:41:12;21.70;70.20
82243;DHT22;71844;51.528;4.442;2023-08-21T07:43:41;21.70;70.30
82243;DHT22;71844;51.528;4.442;2023-08-21T07:46:09;21.70;70.30
82243;DHT22;71844;51.528;4.442;2023-08-21T07:48:40;21.70;70.30
82243;DHT22;71844;51.528;4.442;2023-08-21T07:51:07;21.80;70.20
82243;DHT22;71844;51.528;4.442;2023-08-21T07:53:34;21.80;70.20
82243;DHT22;71844;51.528;4.442;2023-08-21T07:56:04;21.80;70.20
82243;DHT22;71844;51.528;4.442;2023-08-21T07:58:31;21.90;70.00
82243;DHT22;71844;51.528;4.442;2023-08-21T08:00:59;21.90;69.80
82243;DHT22;71844;51.528;4.442;2023-08-21T08:03:28;21.90;69.70
82243;DHT22;71844;51.528;4.442;2023-08-21T08:05:55;22.00;70.00
82243;DHT22;71844;51.528;4.442;2023-08-21T08:08:22;22.00;69.60
82243;DHT22;71844;51.528;4.442;2023-08-21T08:10:49;22.10;69.50
82243;DHT22;71844;51.528;4.442;2023-08-21T08:13:17;22.20;69.60
82243;DHT22;71844;51.528;4.442;2023-08-21T08:15:43;22.40;69.70
82243;DHT22;71844;51.528;4.442;2023-08-21T08:18:14;22.60;69.90
82243;DHT22;71844;51.528;4.442;2023-08-21T08:20:41;22.80;69.80
82243;DHT22;71844;51.528;4.442;2023-08-21T08:23:08;23.00;69.70
82243;DHT22;71844;51.528;4.442;2023-08-21T08:25:35;23.10;69.60
82243;DHT22;71844;51.528;4.442;2023-08-21T08:28:02;23.40;69.50
82243;DHT22;71844;51.528;4.442;2023-08-21T08:30:29;23.60;68.90
82243;DHT22;71844;51.528;4.442;2023-08-21T08:32:56;23.80;68.50
82243;DHT22;71844;51.528;4.442;2023-08-21T08:35:23;24.00;67.80
82243;DHT22;71844;51.528;4.442;2023-08-21T08:37:50;24.20;67.50
82243;DHT22;71844;51.528;4.442;2023-08-21T08:40:17;24.50;67.00
82243;DHT22;71844;51.528;4.442;2023-08-21T08:42:44;24.80;66.30
82243;DHT22;71844;51.528;4.442;2023-08-21T08:45:13;25.10;65.30
82243;DHT22;71844;51.528;4.442;2023-08-21T08:47:41;25.50;64.30
82243;DHT22;71844;51.528;4.442;2023-08-21T08:50:09;25.90;63.00
82243;DHT22;71844;51.528;4.442;2023-08-21T08:52:38;26.30;61.70
82243;DHT22;71844;51.528;4.442;2023-08-21T08:55:06;26.80;60.60
82243;DHT22;71844;51.528;4.442;2023-08-21T08:57:33;27.30;59.30
82243;DHT22;71844;51.528;4.442;2023-08-21T09:00:02;27.60;58.20
82243;DHT22;71844;51.528;4.442;2023-08-21T09:02:30;28.10;57.10
82243;DHT22;71844;51.528;4.442;2023-08-21T09:04:57;28.40;56.10
82243;DHT22;71844;51.528;4.442;2023-08-21T09:07:25;28.70;55.00
82243;DHT22;71844;51.528;4.442;2023-08-21T09:09:52;28.90;54.00
82243;DHT22;71844;51.528;4.442;2023-08-21T09:12:20;29.10;53.30
82243;DHT22;71844;51.528;4.442;2023-08-21T09:14:47;29.30;52.40
82243;DHT22;71844;51.528;4.442;2023-08-21T09:17:15;29.50;51.70
82243;DHT22;71844;51.528;4.442;2023-08-21T09:19:42;29.70;51.30
82243;DHT22;71844;51.528;4.442;2023-08-21T09:22:13;29.90;50.00
82243;DHT22;71844;51.528;4.442;2023-08-21T09:24:41;29.90;48.20
82243;DHT22;71844;51.528;4.442;2023-08-21T09:27:26;29.70;48.00
82243;DHT22;71844;51.528;4.442;2023-08-21T09:29:53;29.80;47.90
82243;DHT22;71844;51.528;4.442;2023-08-21T09:32:20;30.10;47.00
82243;DHT22;71844;51.528;4.442;2023-08-21T09:34:47;30.30;46.10
82243;DHT22;71844;51.528;4.442;2023-08-21T09:37:16;30.50;46.00
82243;DHT22;71844;51.528;4.442;2023-08-21T09:39:44;30.60;45.40
82243;DHT22;71844;51.528;4.442;2023-08-21T09:42:11;30.60;45.00
82243;DHT22;71844;51.528;4.442;2023-08-21T09:44:39;30.60;44.80
82243;DHT22;71844;51.528;4.442;2023-08-21T09:47:10;30.80;44.50
82243;DHT22;71844;51.528;4.442;2023-08-21T09:49:38;31.10;44.10
82243;DHT22;71844;51.528;4.442;2023-08-21T09:52:07;31.40;43.60
82243;DHT22;71844;51.528;4.442;2023-08-21T09:54:34;31.60;43.20
82243;DHT22;71844;51.528;4.442;2023-08-21T09:57:03;31.90;42.80
82243;DHT22;71844;51.528;4.442;2023-08-21T09:59:31;32.20;42.10
82243;DHT22;71844;51.528;4.442;2023-08-21T10:01:59;32.30;41.80
82243;DHT22;71844;51.528;4.442;2023-08-21T10:04:32;32.40;41.30
82243;DHT22;71844;51.528;4.442;2023-08-21T10:07:05;32.40;40.80
82243;DHT22;71844;51.528;4.442;2023-08-21T10:09:34;32.50;40.60
82243;DHT22;71844;51.528;4.442;2023-08-21T10:12:02;32.70;40.40
82243;DHT22;71844;51.528;4.442;2023-08-21T10:14:29;32.90;39.60
82243;DHT22;71844;51.528;4.442;2023-08-21T10:16:56;33.10;39.10
82243;DHT22;71844;51.528;4.442;2023-08-21T10:19:30;33.20;38.40
82243;DHT22;71844;51.528;4.442;2023-08-21T10:21:58;33.30;37.30
82243;DHT22;71844;51.528;4.442;2023-08-21T10:24:27;33.50;37.70
82243;DHT22;71844;51.528;4.442;2023-08-21T10:26:58;33.50;37.30
82243;DHT22;71844;51.528;4.442;2023-08-21T10:29:25;33.50;37.00
82243;DHT22;71844;51.528;4.442;2023-08-21T10:32:00;33.50;36.50
82243;DHT22;71844;51.528;4.442;2023-08-21T10:34:32;33.50;36.00
82243;DHT22;71844;51.528;4.442;2023-08-21T10:39:27;33.30;36.30
82243;DHT22;71844;51.528;4.442;2023-08-21T10:42:04;33.40;36.50
82243;DHT22;71844;51.528;4.442;2023-08-21T10:50:06;33.70;35.70
82243;DHT22;71844;51.528;4.442;2023-08-21T10:52:41;34.00;35.60
82243;DHT22;71844;51.528;4.442;2023-08-21T10:55:17;34.20;35.20
82243;DHT22;71844;51.528;4.442;2023-08-21T10:57:48;34.50;34.80
82243;DHT22;71844;51.528;4.442;2023-08-21T11:00:19;34.70;34.80
82243;DHT22;71844;51.528;4.442;2023-08-21T11:02:49;35.00;34.40
82243;DHT22;71844;51.528;4.442;2023-08-21T11:05:17;35.20;33.90
82243;DHT22;71844;51.528;4.442;2023-08-21T11:07:46;35.10;34.30
82243;DHT22;71844;51.528;4.442;2023-08-21T11:10:19;35.10;34.30
82243;DHT22;71844;51.528;4.442;2023-08-21T11:12:55;35.00;34.70
82243;DHT22;71844;51.528;4.442;2023-08-21T11:15:24;35.20;34.30
82243;DHT22;71844;51.528;4.442;2023-08-21T11:17:58;35.50;34.50
82243;DHT22;71844;51.528;4.442;2023-08-21T11:20:30;35.60;32.80
82243;DHT22;71844;51.528;4.442;2023-08-21T11:22:58;35.70;33.20
82243;DHT22;71844;51.528;4.442;2023-08-21T11:25:25;35.60;32.70
82243;DHT22;71844;51.528;4.442;2023-08-21T11:27:53;35.50;32.40
82243;DHT22;71844;51.528;4.442;2023-08-21T11:30:24;35.40;32.40
82243;DHT22;71844;51.528;4.442;2023-08-21T11:33:09;35.60;31.90
82243;DHT22;71844;51.528;4.442;2023-08-21T11:35:38;35.60;31.70
82243;DHT22;71844;51.528;4.442;2023-08-21T11:38:05;35.60;32.10
82243;DHT22;71844;51.528;4.442;2023-08-21T11:40:36;35.60;32.10
82243;DHT22;71844;51.528;4.442;2023-08-21T11:43:03;35.60;31.90
82243;DHT22;71844;51.528;4.442;2023-08-21T11:45:33;35.60;32.00
82243;DHT22;71844;51.528;4.442;2023-08-21T11:48:19;35.70;32.20
82243;DHT22;71844;51.528;4.442;2023-08-21T11:50:48;36.10;32.10
82243;DHT22;71844;51.528;4.442;2023-08-21T11:53:15;36.50;31.80
82243;DHT22;71844;51.528;4.442;2023-08-21T11:55:42;36.70;32.00
82243;DHT22;71844;51.528;4.442;2023-08-21T11:58:09;36.90;32.20
82243;DHT22;71844;51.528;4.442;2023-08-21T12:00:36;36.90;32.20
82243;DHT22;71844;51.528;4.442;2023-08-21T12:03:06;37.00;32.10
82243;DHT22;71844;51.528;4.442;2023-08-21T12:05:42;37.20;32.00
82243;DHT22;71844;51.528;4.442;2023-08-21T12:08:10;37.40;31.20
82243;DHT22;71844;51.528;4.442;2023-08-21T12:10:37;37.50;31.70
82243;DHT22;71844;51.528;4.442;2023-08-21T12:13:07;37.60;31.60
82243;DHT22;71844;51.528;4.442;2023-08-21T12:15:34;37.80;31.40
82243;DHT22;71844;51.528;4.442;2023-08-21T12:18:01;37.70;31.30
82243;DHT22;71844;51.528;4.442;2023-08-21T12:20:28;37.00;31.70
82243;DHT22;71844;51.528;4.442;2023-08-21T12:22:56;36.40;32.20
82243;DHT22;71844;51.528;4.442;2023-08-21T12:25:23;36.20;32.50
82243;DHT22;71844;51.528;4.442;2023-08-21T12:27:50;36.30;32.70
82243;DHT22;71844;51.528;4.442;2023-08-21T12:30:34;36.40;32.50
82243;DHT22;71844;51.528;4.442;2023-08-21T12:33:01;36.10;32.70
82243;DHT22;71844;51.528;4.442;2023-08-21T12:35:42;35.90;33.10
82243;DHT22;71844;51.528;4.442;2023-08-21T12:38:11;36.30;33.10
82243;DHT22;71844;51.528;4.442;2023-08-21T12:40:39;36.30;32.90
82243;DHT22;71844;51.528;4.442;2023-08-21T12:43:06;36.10;33.10
82243;DHT22;71844;51.528;4.442;2023-08-21T12:45:35;36.10;33.20
82243;DHT22;71844;51.528;4.442;2023-08-21T12:48:02;35.90;33.30
82243;DHT22;71844;51.528;4.442;2023-08-21T12:50:31;35.60;33.50
82243;DHT22;71844;51.528;4.442;2023-08-21T12:52:58;35.10;33.80
82243;DHT22;71844;51.528;4.442;2023-08-21T12:55:24;34.70;34.20
82243;DHT22;71844;51.528;4.442;2023-08-21T12:57:51;34.40;34.70
82243;DHT22;71844;51.528;4.442;2023-08-21T13:00:18;34.40;35.00
82243;DHT22;71844;51.528;4.442;2023-08-21T13:02:45;34.50;35.10
82243;DHT22;71844;51.528;4.442;2023-08-21T13:05:12;34.80;35.10
82243;DHT22;71844;51.528;4.442;2023-08-21T13:07:40;35.20;34.80
82243;DHT22;71844;51.528;4.442;2023-08-21T13:10:07;35.40;34.40
82243;DHT22;71844;51.528;4.442;2023-08-21T13:12:36;35.00;34.60
82243;DHT22;71844;51.528;4.442;2023-08-21T13:15:04;34.50;35.00
82243;DHT22;71844;51.528;4.442;2023-08-21T13:17:31;34.30;35.50
82243;DHT22;71844;51.528;4.442;2023-08-21T13:19:58;34.60;35.60
82243;DHT22;71844;51.528;4.442;2023-08-21T13:22:25;35.10;35.20
82243;DHT22;71844;51.528;4.442;2023-08-21T13:24:52;35.50;34.90
82243;DHT22;71844;51.528;4.442;2023-08-21T13:27:19;35.70;34.70
82243;DHT22;71844;51.528;4.442;2023-08-21T13:29:46;35.90;34.70
82243;DHT22;71844;51.528;4.442;2023-08-21T13:32:13;36.20;34.60
82243;DHT22;71844;51.528;4.442;2023-08-21T13:34:40;36.60;34.30
82243;DHT22;71844;51.528;4.442;2023-08-21T13:37:07;36.80;34.20
82243;DHT22;71844;51.528;4.442;2023-08-21T13:39:34;36.90;33.50
82243;DHT22;71844;51.528;4.442;2023-08-21T13:42:02;37.00;33.00
82243;DHT22;71844;51.528;4.442;2023-08-21T13:44:29;37.10;32.30
82243;DHT22;71844;51.528;4.442;2023-08-21T13:46:59;37.00;32.00
82243;DHT22;71844;51.528;4.442;2023-08-21T13:49:27;36.60;32.00
82243;DHT22;71844;51.528;4.442;2023-08-21T13:51:53;36.40;32.40
82243;DHT22;71844;51.528;4.442;2023-08-21T13:54:20;36.50;32.50
82243;DHT22;71844;51.528;4.442;2023-08-21T13:56:47;36.50;32.10
82243;DHT22;71844;51.528;4.442;2023-08-21T13:59:14;36.50;31.90
82243;DHT22;71844;51.528;4.442;2023-08-21T14:01:41;36.60;31.60
82243;DHT22;71844;51.528;4.442;2023-08-21T14:04:08;36.70;31.60
82243;DHT22;71844;51.528;4.442;2023-08-21T14:06:35;36.80;30.80
82243;DHT22;71844;51.528;4.442;2023-08-21T14:09:02;36.50;30.70
82243;DHT22;71844;51.528;4.442;2023-08-21T14:11:29;36.00;31.10
82243;DHT22;71844;51.528;4.442;2023-08-21T14:13:56;35.80;31.40
82243;DHT22;71844;51.528;4.442;2023-08-21T14:16:23;35.80;31.50
82243;DHT22;71844;51.528;4.442;2023-08-21T14:18:50;35.90;31.50
82243;DHT22;71844;51.528;4.442;2023-08-21T14:21:17;35.90;31.40
82243;DHT22;71844;51.528;4.442;2023-08-21T14:23:44;35.70;31.70
82243;DHT22;71844;51.528;4.442;2023-08-21T14:26:10;35.70;31.50
82243;DHT22;71844;51.528;4.442;2023-08-21T14:28:37;35.60;31.20
82243;DHT22;71844;51.528;4.442;2023-08-21T14:31:04;35.70;31.10
82243;DHT22;71844;51.528;4.442;2023-08-21T14:33:31;35.60;31.30
82243;DHT22;71844;51.528;4.442;2023-08-21T14:35:58;35.40;31.70
82243;DHT22;71844;51.528;4.442;2023-08-21T14:38:25;35.30;31.90
82243;DHT22;71844;51.528;4.442;2023-08-21T14:40:52;35.20;32.00
82243;DHT22;71844;51.528;4.442;2023-08-21T14:43:20;35.30;32.00
82243;DHT22;71844;51.528;4.442;2023-08-21T14:45:47;35.30;32.00
82243;DHT22;71844;51.528;4.442;2023-08-21T14:48:14;35.20;32.00
82243;DHT22;71844;51.528;4.442;2023-08-21T14:50:41;35.20;32.50
82243;DHT22;71844;51.528;4.442;2023-08-21T14:53:08;35.10;33.10
82243;DHT22;71844;51.528;4.442;2023-08-21T14:55:35;35.00;32.90
82243;DHT22;71844;51.528;4.442;2023-08-21T14:58:02;34.90;32.80
82243;DHT22;71844;51.528;4.442;2023-08-21T15:00:33;34.80;32.40
82243;DHT22;71844;51.528;4.442;2023-08-21T15:03:00;34.70;32.30
82243;DHT22;71844;51.528;4.442;2023-08-21T15:05:28;34.60;32.50
82243;DHT22;71844;51.528;4.442;2023-08-21T15:07:54;34.30;32.50
82243;DHT22;71844;51.528;4.442;2023-08-21T15:10:22;33.80;32.80
82243;DHT22;71844;51.528;4.442;2023-08-21T15:12:49;33.50;33.10
82243;DHT22;71844;51.528;4.442;2023-08-21T15:15:20;33.30;33.20
82243;DHT22;71844;51.528;4.442;2023-08-21T15:17:51;33.10;34.00
82243;DHT22;71844;51.528;4.442;2023-08-21T15:20:18;32.80;34.90
82243;DHT22;71844;51.528;4.442;2023-08-21T15:22:45;32.50;35.70
82243;DHT22;71844;51.528;4.442;2023-08-21T15:25:12;32.40;36.00
82243;DHT22;71844;51.528;4.442;2023-08-21T15:27:39;32.30;36.40
82243;DHT22;71844;51.528;4.442;2023-08-21T15:30:07;32.20;36.80
82243;DHT22;71844;51.528;4.442;2023-08-21T15:32:34;32.00;37.20
82243;DHT22;71844;51.528;4.442;2023-08-21T15:35:01;31.90;37.70
82243;DHT22;71844;51.528;4.442;2023-08-21T15:37:30;31.90;37.80
82243;DHT22;71844;51.528;4.442;2023-08-21T15:39:58;31.90;38.20
82243;DHT22;71844;51.528;4.442;2023-08-21T15:42:25;31.90;37.80
82243;DHT22;71844;51.528;4.442;2023-08-21T15:44:53;32.00;37.70